sensor_id;sensor_type;location;lat;lon;timestamp;P1;durP1;ratioP1;P2;durP2;ratioP2
32399;SDS011;45045;45.440;9.178;2023-02-04T00:01:03;11.25;;;4.03;;
32399;SDS011;45045;45.440;9.178;2023-02-04T00:03:29;8.95;;;3.70;;
32399;SDS011;45045;45.440;9.178;2023-02-04T00:05:55;11.73;;;3.53;;
32399;SDS011;45045;45.440;9.178;2023-02-04T00:08:21;9.13;;;3.60;;
32399;SDS011;45045;45.440;9.178;2023-02-04T00:10:48;8.85;;;3.53;;
32399;SDS011;45045;45.440;9.178;2023-02-04T00:13:14;9.00;;;3.35;;
32399;SDS011;45045;45.440;9.178;2023-02-04T00:15:40;10.52;;;4.60;;
32399;SDS011;45045;45.440;9.178;2023-02-04T00:18:05;13.05;;;4.43;;
32399;SDS011;45045;45.440;9.178;2023-02-04T00:20:31;9.63;;;4.10;;
32399;SDS011;45045;45.440;9.178;2023-02-04T00:22:57;7.88;;;3.65;;
32399;SDS011;45045;45.440;9.178;2023-02-04T00:25:23;10.75;;;3.95;;
32399;SDS011;45045;45.440;9.178;2023-02-04T00:27:49;12.50;;;4.03;;
32399;SDS011;45045;45.440;9.178;2023-02-04T00:30:15;13.52;;;4.13;;
32399;SDS011;45045;45.440;9.178;2023-02-04T00:32:41;11.07;;;4.53;;
32399;SDS011;45045;45.440;9.178;2023-02-04T00:35:07;11.25;;;5.35;;
32399;SDS011;45045;45.440;9.178;2023-02-04T00:37:33;10.65;;;4.70;;
32399;SDS011;45045;45.440;9.178;2023-02-04T00:39:59;12.60;;;5.00;;
32399;SDS011;45045;45.440;9.178;2023-02-04T00:42:24;12.52;;;5.82;;
32399;SDS011;45045;45.440;9.178;2023-02-04T00:44:50;14.88;;;6.00;;
32399;SDS011;45045;45.440;9.178;2023-02-04T00:47:16;11.63;;;6.45;;
32399;SDS011;45045;45.440;9.178;2023-02-04T00:49:42;14.55;;;6.72;;
32399;SDS011;45045;45.440;9.178;2023-02-04T00:52:07;14.98;;;6.78;;
32399;SDS011;45045;45.440;9.178;2023-02-04T00:54:33;14.13;;;6.78;;
32399;SDS011;45045;45.440;9.178;2023-02-04T00:56:59;12.93;;;7.05;;
32399;SDS011;45045;45.440;9.178;2023-02-04T00:59:25;17.30;;;7.18;;
32399;SDS011;45045;45.440;9.178;2023-02-04T01:01:50;13.18;;;6.80;;
32399;SDS011;45045;45.440;9.178;2023-02-04T01:04:16;13.32;;;6.63;;
32399;SDS011;45045;45.440;9.178;2023-02-04T01:06:42;14.05;;;6.55;;
32399;SDS011;45045;45.440;9.178;2023-02-04T01:09:08;13.48;;;6.85;;
32399;SDS011;45045;45.440;9.178;2023-02-04T01:11:34;15.63;;;7.07;;
32399;SDS011;45045;45.440;9.178;2023-02-04T01:14:00;14.63;;;7.00;;
32399;SDS011;45045;45.440;9.178;2023-02-04T01:16:26;15.70;;;7.88;;
32399;SDS011;45045;45.440;9.178;2023-02-04T01:18:52;14.23;;;7.05;;
32399;SDS011;45045;45.440;9.178;2023-02-04T01:21:19;14.55;;;7.70;;
32399;SDS011;45045;45.440;9.178;2023-02-04T01:23:48;15.10;;;8.18;;
32399;SDS011;45045;45.440;9.178;2023-02-04T01:26:14;15.27;;;8.73;;
32399;SDS011;45045;45.440;9.178;2023-02-04T01:28:41;18.67;;;8.73;;
32399;SDS011;45045;45.440;9.178;2023-02-04T01:31:06;11.80;;;7.80;;
32399;SDS011;45045;45.440;9.178;2023-02-04T01:33:32;13.00;;;7.65;;
32399;SDS011;45045;45.440;9.178;2023-02-04T01:35:58;18.55;;;8.43;;
32399;SDS011;45045;45.440;9.178;2023-02-04T01:38:23;23.75;;;10.38;;
32399;SDS011;45045;45.440;9.178;2023-02-04T01:40:49;17.42;;;9.10;;
32399;SDS011;45045;45.440;9.178;2023-02-04T01:43:15;17.83;;;9.45;;
32399;SDS011;45045;45.440;9.178;2023-02-04T01:45:43;17.35;;;9.77;;
32399;SDS011;45045;45.440;9.178;2023-02-04T01:48:09;19.42;;;10.70;;
32399;SDS011;45045;45.440;9.178;2023-02-04T01:50:37;19.23;;;9.77;;
32399;SDS011;45045;45.440;9.178;2023-02-04T01:53:02;16.38;;;9.60;;
32399;SDS011;45045;45.440;9.178;2023-02-04T01:55:29;18.27;;;10.25;;
32399;SDS011;45045;45.440;9.178;2023-02-04T01:57:56;16.48;;;9.32;;
32399;SDS011;45045;45.440;9.178;2023-02-04T02:00:26;15.45;;;8.45;;
32399;SDS011;45045;45.440;9.178;2023-02-04T02:05:24;17.42;;;9.23;;
32399;SDS011;45045;45.440;9.178;2023-02-04T02:07:54;15.27;;;9.27;;
32399;SDS011;45045;45.440;9.178;2023-02-04T02:10:21;17.08;;;10.30;;
32399;SDS011;45045;45.440;9.178;2023-02-04T02:12:48;17.25;;;10.25;;
32399;SDS011;45045;45.440;9.178;2023-02-04T02:15:14;19.33;;;12.95;;
32399;SDS011;45045;45.440;9.178;2023-02-04T02:17:40;23.25;;;14.00;;
32399;SDS011;45045;45.440;9.178;2023-02-04T02:20:08;21.30;;;13.80;;
32399;SDS011;45045;45.440;9.178;2023-02-04T02:25:23;24.50;;;15.05;;
32399;SDS011;45045;45.440;9.178;2023-02-04T02:27:49;25.50;;;15.20;;
32399;SDS011;45045;45.440;9.178;2023-02-04T02:30:15;25.15;;;16.17;;
32399;SDS011;45045;45.440;9.178;2023-02-04T02:32:42;25.67;;;14.98;;
32399;SDS011;45045;45.440;9.178;2023-02-04T02:35:09;25.35;;;16.85;;
32399;SDS011;45045;45.440;9.178;2023-02-04T02:37:35;27.80;;;15.43;;
32399;SDS011;45045;45.440;9.178;2023-02-04T02:40:01;23.90;;;16.02;;
32399;SDS011;45045;45.440;9.178;2023-02-04T02:42:27;30.35;;;16.00;;
32399;SDS011;45045;45.440;9.178;2023-02-04T02:44:54;24.15;;;15.75;;
32399;SDS011;45045;45.440;9.178;2023-02-04T02:47:20;27.60;;;16.60;;
32399;SDS011;45045;45.440;9.178;2023-02-04T02:49:48;29.17;;;16.77;;
32399;SDS011;45045;45.440;9.178;2023-02-04T02:52:15;27.10;;;15.98;;
32399;SDS011;45045;45.440;9.178;2023-02-04T02:54:42;21.45;;;15.45;;
32399;SDS011;45045;45.440;9.178;2023-02-04T02:57:12;22.65;;;15.57;;
32399;SDS011;45045;45.440;9.178;2023-02-04T02:59:43;23.23;;;14.75;;
32399;SDS011;45045;45.440;9.178;2023-02-04T03:02:10;26.45;;;15.07;;
32399;SDS011;45045;45.440;9.178;2023-02-04T03:04:42;21.60;;;14.18;;
32399;SDS011;45045;45.440;9.178;2023-02-04T03:07:11;24.50;;;15.50;;
32399;SDS011;45045;45.440;9.178;2023-02-04T03:09:38;24.85;;;14.85;;
32399;SDS011;45045;45.440;9.178;2023-02-04T03:12:04;21.58;;;13.82;;
32399;SDS011;45045;45.440;9.178;2023-02-04T03:14:30;22.15;;;14.80;;
32399;SDS011;45045;45.440;9.178;2023-02-04T03:16:57;25.63;;;15.70;;
32399;SDS011;45045;45.440;9.178;2023-02-04T03:19:26;23.23;;;15.30;;
32399;SDS011;45045;45.440;9.178;2023-02-04T03:21:53;24.77;;;14.70;;
32399;SDS011;45045;45.440;9.178;2023-02-04T03:24:21;27.65;;;15.98;;
32399;SDS011;45045;45.440;9.178;2023-02-04T03:26:47;23.38;;;15.88;;
32399;SDS011;45045;45.440;9.178;2023-02-04T03:29:13;21.40;;;15.63;;
32399;SDS011;45045;45.440;9.178;2023-02-04T03:31:39;21.30;;;15.65;;
32399;SDS011;45045;45.440;9.178;2023-02-04T03:34:05;24.20;;;15.27;;
32399;SDS011;45045;45.440;9.178;2023-02-04T03:36:31;28.55;;;17.35;;
32399;SDS011;45045;45.440;9.178;2023-02-04T03:38:56;26.48;;;16.90;;
32399;SDS011;45045;45.440;9.178;2023-02-04T03:41:22;24.75;;;16.23;;
32399;SDS011;45045;45.440;9.178;2023-02-04T03:43:48;26.95;;;17.15;;
32399;SDS011;45045;45.440;9.178;2023-02-04T03:46:13;25.10;;;16.48;;
32399;SDS011;45045;45.440;9.178;2023-02-04T03:48:39;23.75;;;15.85;;
32399;SDS011;45045;45.440;9.178;2023-02-04T03:51:05;25.40;;;16.75;;
32399;SDS011;45045;45.440;9.178;2023-02-04T03:53:31;24.90;;;16.33;;
32399;SDS011;45045;45.440;9.178;2023-02-04T03:55:56;25.67;;;16.52;;
32399;SDS011;45045;45.440;9.178;2023-02-04T03:58:22;23.10;;;16.38;;
32399;SDS011;45045;45.440;9.178;2023-02-04T04:00:48;29.60;;;16.63;;
32399;SDS011;45045;45.440;9.178;2023-02-04T04:03:14;26.35;;;16.70;;
32399;SDS011;45045;45.440;9.178;2023-02-04T04:05:40;24.38;;;16.60;;
32399;SDS011;45045;45.440;9.178;2023-02-04T04:08:05;23.08;;;16.10;;
32399;SDS011;45045;45.440;9.178;2023-02-04T04:10:31;22.95;;;17.50;;
32399;SDS011;45045;45.440;9.178;2023-02-04T04:12:57;26.08;;;16.40;;
32399;SDS011;45045;45.440;9.178;2023-02-04T04:15:23;26.63;;;16.10;;
32399;SDS011;45045;45.440;9.178;2023-02-04T04:17:48;23.45;;;15.82;;
32399;SDS011;45045;45.440;9.178;2023-02-04T04:20:14;24.02;;;16.58;;
32399;SDS011;45045;45.440;9.178;2023-02-04T04:22:40;25.63;;;17.00;;
32399;SDS011;45045;45.440;9.178;2023-02-04T04:25:06;24.48;;;15.88;;
32399;SDS011;45045;45.440;9.178;2023-02-04T04:27:33;26.00;;;15.98;;
32399;SDS011;45045;45.440;9.178;2023-02-04T04:29:59;25.15;;;15.73;;
32399;SDS011;45045;45.440;9.178;2023-02-04T04:32:25;22.60;;;16.25;;
32399;SDS011;45045;45.440;9.178;2023-02-04T04:34:50;25.50;;;15.95;;
32399;SDS011;45045;45.440;9.178;2023-02-04T04:37:16;25.88;;;17.42;;
32399;SDS011;45045;45.440;9.178;2023-02-04T04:39:42;26.05;;;16.50;;
32399;SDS011;45045;45.440;9.178;2023-02-04T04:42:07;24.23;;;16.52;;
32399;SDS011;45045;45.440;9.178;2023-02-04T04:44:33;21.73;;;15.90;;
32399;SDS011;45045;45.440;9.178;2023-02-04T04:46:59;22.08;;;15.82;;
32399;SDS011;45045;45.440;9.178;2023-02-04T04:49:25;26.38;;;16.70;;
32399;SDS011;45045;45.440;9.178;2023-02-04T04:51:51;26.23;;;15.90;;
32399;SDS011;45045;45.440;9.178;2023-02-04T04:54:18;23.02;;;16.52;;
32399;SDS011;45045;45.440;9.178;2023-02-04T04:56:43;25.15;;;15.90;;
32399;SDS011;45045;45.440;9.178;2023-02-04T04:59:09;25.70;;;16.63;;
32399;SDS011;45045;45.440;9.178;2023-02-04T05:01:35;22.08;;;15.23;;
32399;SDS011;45045;45.440;9.178;2023-02-04T05:04:00;23.88;;;16.40;;
32399;SDS011;45045;45.440;9.178;2023-02-04T05:06:28;21.98;;;16.25;;
32399;SDS011;45045;45.440;9.178;2023-02-04T05:08:53;25.83;;;16.27;;
32399;SDS011;45045;45.440;9.178;2023-02-04T05:11:19;25.13;;;16.58;;
32399;SDS011;45045;45.440;9.178;2023-02-04T05:13:46;23.95;;;16.13;;
32399;SDS011;45045;45.440;9.178;2023-02-04T05:16:12;27.92;;;16.52;;
32399;SDS011;45045;45.440;9.178;2023-02-04T05:18:39;26.00;;;16.77;;
32399;SDS011;45045;45.440;9.178;2023-02-04T05:21:05;41.47;;;22.88;;
32399;SDS011;45045;45.440;9.178;2023-02-04T05:23:31;28.83;;;18.58;;
32399;SDS011;45045;45.440;9.178;2023-02-04T05:25:57;27.90;;;18.35;;
32399;SDS011;45045;45.440;9.178;2023-02-04T05:28:23;29.02;;;17.77;;
32399;SDS011;45045;45.440;9.178;2023-02-04T05:30:49;23.67;;;16.38;;
32399;SDS011;45045;45.440;9.178;2023-02-04T05:33:15;28.92;;;16.55;;
32399;SDS011;45045;45.440;9.178;2023-02-04T05:35:40;22.88;;;16.10;;
32399;SDS011;45045;45.440;9.178;2023-02-04T05:38:06;26.35;;;16.15;;
32399;SDS011;45045;45.440;9.178;2023-02-04T05:40:32;31.13;;;18.58;;
32399;SDS011;45045;45.440;9.178;2023-02-04T05:42:58;27.50;;;17.23;;
32399;SDS011;45045;45.440;9.178;2023-02-04T05:45:23;27.02;;;16.05;;
32399;SDS011;45045;45.440;9.178;2023-02-04T05:47:49;25.15;;;15.38;;
32399;SDS011;45045;45.440;9.178;2023-02-04T05:50:15;23.48;;;15.85;;
32399;SDS011;45045;45.440;9.178;2023-02-04T05:52:40;26.55;;;16.33;;
32399;SDS011;45045;45.440;9.178;2023-02-04T05:55:07;27.38;;;17.15;;
32399;SDS011;45045;45.440;9.178;2023-02-04T05:57:34;27.45;;;16.88;;
32399;SDS011;45045;45.440;9.178;2023-02-04T06:00:00;27.13;;;16.42;;
32399;SDS011;45045;45.440;9.178;2023-02-04T06:02:26;25.30;;;17.05;;
32399;SDS011;45045;45.440;9.178;2023-02-04T06:04:51;25.67;;;17.23;;
32399;SDS011;45045;45.440;9.178;2023-02-04T06:07:17;27.52;;;17.13;;
32399;SDS011;45045;45.440;9.178;2023-02-04T06:09:43;26.13;;;17.20;;
32399;SDS011;45045;45.440;9.178;2023-02-04T06:12:09;23.88;;;16.15;;
32399;SDS011;45045;45.440;9.178;2023-02-04T06:14:34;27.85;;;17.00;;
32399;SDS011;45045;45.440;9.178;2023-02-04T06:17:00;29.75;;;17.38;;
32399;SDS011;45045;45.440;9.178;2023-02-04T06:19:26;26.83;;;16.98;;
32399;SDS011;45045;45.440;9.178;2023-02-04T06:21:51;27.42;;;17.20;;
32399;SDS011;45045;45.440;9.178;2023-02-04T06:24:17;28.27;;;18.38;;
32399;SDS011;45045;45.440;9.178;2023-02-04T06:26:43;29.98;;;18.42;;
32399;SDS011;45045;45.440;9.178;2023-02-04T06:29:08;27.58;;;17.98;;
32399;SDS011;45045;45.440;9.178;2023-02-04T06:31:34;30.60;;;17.60;;
32399;SDS011;45045;45.440;9.178;2023-02-04T06:34:02;25.83;;;16.73;;
32399;SDS011;45045;45.440;9.178;2023-02-04T06:36:29;24.77;;;16.48;;
32399;SDS011;45045;45.440;9.178;2023-02-04T06:38:55;25.63;;;16.63;;
32399;SDS011;45045;45.440;9.178;2023-02-04T06:41:21;24.92;;;16.17;;
32399;SDS011;45045;45.440;9.178;2023-02-04T06:43:47;25.23;;;16.15;;
32399;SDS011;45045;45.440;9.178;2023-02-04T06:46:13;23.83;;;15.95;;
32399;SDS011;45045;45.440;9.178;2023-02-04T06:48:39;24.55;;;16.75;;
32399;SDS011;45045;45.440;9.178;2023-02-04T06:51:04;30.02;;;16.38;;
32399;SDS011;45045;45.440;9.178;2023-02-04T06:53:30;24.83;;;16.73;;
32399;SDS011;45045;45.440;9.178;2023-02-04T06:55:56;24.88;;;16.23;;
32399;SDS011;45045;45.440;9.178;2023-02-04T06:58:21;26.48;;;16.10;;
32399;SDS011;45045;45.440;9.178;2023-02-04T07:00:47;23.48;;;15.90;;
32399;SDS011;45045;45.440;9.178;2023-02-04T07:03:13;28.35;;;15.77;;
32399;SDS011;45045;45.440;9.178;2023-02-04T07:05:38;25.25;;;15.65;;
32399;SDS011;45045;45.440;9.178;2023-02-04T07:08:04;28.58;;;16.25;;
32399;SDS011;45045;45.440;9.178;2023-02-04T07:10:30;25.33;;;17.27;;
32399;SDS011;45045;45.440;9.178;2023-02-04T07:12:56;22.58;;;14.93;;
32399;SDS011;45045;45.440;9.178;2023-02-04T07:15:22;26.63;;;15.90;;
32399;SDS011;45045;45.440;9.178;2023-02-04T07:17:48;25.13;;;16.13;;
32399;SDS011;45045;45.440;9.178;2023-02-04T07:20:14;26.20;;;16.30;;
32399;SDS011;45045;45.440;9.178;2023-02-04T07:22:40;27.85;;;17.65;;
32399;SDS011;45045;45.440;9.178;2023-02-04T07:25:06;24.10;;;15.55;;
32399;SDS011;45045;45.440;9.178;2023-02-04T07:27:32;22.52;;;15.35;;
32399;SDS011;45045;45.440;9.178;2023-02-04T07:29:58;22.83;;;16.70;;
32399;SDS011;45045;45.440;9.178;2023-02-04T07:32:23;26.50;;;16.65;;
32399;SDS011;45045;45.440;9.178;2023-02-04T07:34:51;24.50;;;16.00;;
32399;SDS011;45045;45.440;9.178;2023-02-04T07:37:17;28.20;;;16.75;;
32399;SDS011;45045;45.440;9.178;2023-02-04T07:39:44;24.48;;;15.25;;
32399;SDS011;45045;45.440;9.178;2023-02-04T07:42:10;23.15;;;16.15;;
32399;SDS011;45045;45.440;9.178;2023-02-04T07:44:35;22.08;;;15.68;;
32399;SDS011;45045;45.440;9.178;2023-02-04T07:47:01;23.30;;;16.17;;
32399;SDS011;45045;45.440;9.178;2023-02-04T07:49:27;24.90;;;15.85;;
32399;SDS011;45045;45.440;9.178;2023-02-04T07:51:53;27.65;;;15.55;;
32399;SDS011;45045;45.440;9.178;2023-02-04T07:54:19;24.13;;;15.20;;
32399;SDS011;45045;45.440;9.178;2023-02-04T07:56:44;22.23;;;14.68;;
32399;SDS011;45045;45.440;9.178;2023-02-04T07:59:10;22.60;;;15.38;;
32399;SDS011;45045;45.440;9.178;2023-02-04T08:01:36;22.05;;;15.90;;
32399;SDS011;45045;45.440;9.178;2023-02-04T08:04:01;22.23;;;15.65;;
32399;SDS011;45045;45.440;9.178;2023-02-04T08:06:27;24.77;;;15.35;;
32399;SDS011;45045;45.440;9.178;2023-02-04T08:08:53;24.73;;;15.75;;
32399;SDS011;45045;45.440;9.178;2023-02-04T08:11:19;22.17;;;15.65;;
32399;SDS011;45045;45.440;9.178;2023-02-04T08:13:44;21.30;;;15.57;;
32399;SDS011;45045;45.440;9.178;2023-02-04T08:16:10;24.05;;;15.95;;
32399;SDS011;45045;45.440;9.178;2023-02-04T08:18:35;22.33;;;15.63;;
32399;SDS011;45045;45.440;9.178;2023-02-04T08:21:01;24.52;;;16.10;;
32399;SDS011;45045;45.440;9.178;2023-02-04T08:23:28;23.38;;;15.80;;
32399;SDS011;45045;45.440;9.178;2023-02-04T08:25:54;23.30;;;16.38;;
32399;SDS011;45045;45.440;9.178;2023-02-04T08:28:20;22.23;;;16.27;;
32399;SDS011;45045;45.440;9.178;2023-02-04T08:30:46;26.00;;;15.65;;
32399;SDS011;45045;45.440;9.178;2023-02-04T08:33:11;26.95;;;16.00;;
32399;SDS011;45045;45.440;9.178;2023-02-04T08:35:37;24.77;;;15.70;;
32399;SDS011;45045;45.440;9.178;2023-02-04T08:38:03;25.42;;;16.73;;
32399;SDS011;45045;45.440;9.178;2023-02-04T08:40:29;22.75;;;15.27;;
32399;SDS011;45045;45.440;9.178;2023-02-04T08:42:54;23.02;;;14.75;;
32399;SDS011;45045;45.440;9.178;2023-02-04T08:45:20;26.02;;;14.10;;
32399;SDS011;45045;45.440;9.178;2023-02-04T08:47:46;22.60;;;14.98;;
32399;SDS011;45045;45.440;9.178;2023-02-04T08:50:12;18.42;;;13.80;;
32399;SDS011;45045;45.440;9.178;2023-02-04T08:52:37;25.05;;;14.88;;
32399;SDS011;45045;45.440;9.178;2023-02-04T08:55:03;19.73;;;14.50;;
32399;SDS011;45045;45.440;9.178;2023-02-04T08:57:29;20.60;;;12.65;;
32399;SDS011;45045;45.440;9.178;2023-02-04T08:59:55;21.55;;;13.63;;
32399;SDS011;45045;45.440;9.178;2023-02-04T09:02:21;18.83;;;12.90;;
32399;SDS011;45045;45.440;9.178;2023-02-04T09:04:46;23.23;;;13.57;;
32399;SDS011;45045;45.440;9.178;2023-02-04T09:07:12;19.98;;;12.98;;
32399;SDS011;45045;45.440;9.178;2023-02-04T09:09:38;20.88;;;13.63;;
32399;SDS011;45045;45.440;9.178;2023-02-04T09:12:03;21.60;;;13.43;;
32399;SDS011;45045;45.440;9.178;2023-02-04T09:14:29;18.75;;;14.13;;
32399;SDS011;45045;45.440;9.178;2023-02-04T09:17:01;22.58;;;14.52;;
32399;SDS011;45045;45.440;9.178;2023-02-04T09:19:27;18.83;;;12.77;;
32399;SDS011;45045;45.440;9.178;2023-02-04T09:21:53;15.65;;;12.10;;
32399;SDS011;45045;45.440;9.178;2023-02-04T09:24:19;20.02;;;12.50;;
32399;SDS011;45045;45.440;9.178;2023-02-04T09:26:47;16.95;;;11.60;;
32399;SDS011;45045;45.440;9.178;2023-02-04T09:29:13;20.02;;;12.30;;
32399;SDS011;45045;45.440;9.178;2023-02-04T09:31:39;21.75;;;12.35;;
32399;SDS011;45045;45.440;9.178;2023-02-04T09:34:05;15.55;;;11.63;;
32399;SDS011;45045;45.440;9.178;2023-02-04T09:36:31;18.10;;;10.98;;
32399;SDS011;45045;45.440;9.178;2023-02-04T09:39:01;19.30;;;13.32;;
32399;SDS011;45045;45.440;9.178;2023-02-04T09:41:31;23.60;;;16.90;;
32399;SDS011;45045;45.440;9.178;2023-02-04T09:43:58;15.55;;;11.07;;
32399;SDS011;45045;45.440;9.178;2023-02-04T09:46:25;17.52;;;11.50;;
32399;SDS011;45045;45.440;9.178;2023-02-04T09:48:52;13.57;;;10.52;;
32399;SDS011;45045;45.440;9.178;2023-02-04T09:51:22;17.95;;;11.23;;
32399;SDS011;45045;45.440;9.178;2023-02-04T09:53:51;16.02;;;10.18;;
32399;SDS011;45045;45.440;9.178;2023-02-04T09:56:18;15.73;;;10.30;;
32399;SDS011;45045;45.440;9.178;2023-02-04T09:58:44;20.05;;;14.02;;
32399;SDS011;45045;45.440;9.178;2023-02-04T10:01:14;15.55;;;11.18;;
32399;SDS011;45045;45.440;9.178;2023-02-04T10:03:42;15.52;;;10.52;;
32399;SDS011;45045;45.440;9.178;2023-02-04T10:06:19;14.38;;;11.35;;
32399;SDS011;45045;45.440;9.178;2023-02-04T10:08:48;17.75;;;10.43;;
32399;SDS011;45045;45.440;9.178;2023-02-04T10:11:15;16.50;;;9.52;;
32399;SDS011;45045;45.440;9.178;2023-02-04T10:13:45;15.50;;;11.82;;
32399;SDS011;45045;45.440;9.178;2023-02-04T10:16:18;14.98;;;9.88;;
32399;SDS011;45045;45.440;9.178;2023-02-04T10:18:53;15.18;;;11.50;;
32399;SDS011;45045;45.440;9.178;2023-02-04T10:21:27;16.77;;;10.23;;
32399;SDS011;45045;45.440;9.178;2023-02-04T10:23:57;16.80;;;9.88;;
32399;SDS011;45045;45.440;9.178;2023-02-04T10:26:25;22.52;;;9.77;;
32399;SDS011;45045;45.440;9.178;2023-02-04T10:29:00;14.40;;;9.10;;
32399;SDS011;45045;45.440;9.178;2023-02-04T10:31:39;15.32;;;8.10;;
32399;SDS011;45045;45.440;9.178;2023-02-04T10:34:13;12.27;;;6.63;;
32399;SDS011;45045;45.440;9.178;2023-02-04T10:36:40;13.57;;;6.68;;
32399;SDS011;45045;45.440;9.178;2023-02-04T10:39:13;11.60;;;4.22;;
32399;SDS011;45045;45.440;9.178;2023-02-04T10:41:43;13.07;;;4.75;;
32399;SDS011;45045;45.440;9.178;2023-02-04T10:44:12;8.10;;;3.10;;
32399;SDS011;45045;45.440;9.178;2023-02-04T10:46:39;9.85;;;2.20;;
32399;SDS011;45045;45.440;9.178;2023-02-04T10:49:22;18.65;;;11.15;;
32399;SDS011;45045;45.440;9.178;2023-02-04T10:51:49;107.10;;;69.97;;
32399;SDS011;45045;45.440;9.178;2023-02-04T10:54:17;62.13;;;48.70;;
32399;SDS011;45045;45.440;9.178;2023-02-04T10:56:54;15.00;;;10.25;;
32399;SDS011;45045;45.440;9.178;2023-02-04T10:59:27;5.10;;;1.15;;
32399;SDS011;45045;45.440;9.178;2023-02-04T11:01:54;4.38;;;0.93;;
32399;SDS011;45045;45.440;9.178;2023-02-04T11:04:21;8.07;;;0.98;;
32399;SDS011;45045;45.440;9.178;2023-02-04T11:06:48;4.63;;;0.90;;
32399;SDS011;45045;45.440;9.178;2023-02-04T11:09:18;2.13;;;0.77;;
32399;SDS011;45045;45.440;9.178;2023-02-04T11:11:48;4.45;;;1.67;;
32399;SDS011;45045;45.440;9.178;2023-02-04T11:14:29;8.68;;;2.13;;
32399;SDS011;45045;45.440;9.178;2023-02-04T11:17:04;5.03;;;2.22;;
32399;SDS011;45045;45.440;9.178;2023-02-04T11:19:38;3.60;;;1.40;;
32399;SDS011;45045;45.440;9.178;2023-02-04T11:22:23;8.43;;;1.52;;
32399;SDS011;45045;45.440;9.178;2023-02-04T11:25:00;22.95;;;2.08;;
32399;SDS011;45045;45.440;9.178;2023-02-04T11:27:37;22.38;;;2.33;;
32399;SDS011;45045;45.440;9.178;2023-02-04T11:30:18;19.25;;;1.52;;
32399;SDS011;45045;45.440;9.178;2023-02-04T11:33:02;13.38;;;1.30;;
32399;SDS011;45045;45.440;9.178;2023-02-04T11:35:30;11.68;;;1.42;;
32399;SDS011;45045;45.440;9.178;2023-02-04T11:37:56;2.58;;;0.50;;
32399;SDS011;45045;45.440;9.178;2023-02-04T11:42:57;27.65;;;2.03;;
32399;SDS011;45045;45.440;9.178;2023-02-04T11:45:24;10.52;;;1.10;;
32399;SDS011;45045;45.440;9.178;2023-02-04T11:47:52;8.05;;;0.85;;
32399;SDS011;45045;45.440;9.178;2023-02-04T11:50:23;6.60;;;0.98;;
32399;SDS011;45045;45.440;9.178;2023-02-04T11:52:57;2.72;;;1.10;;
32399;SDS011;45045;45.440;9.178;2023-02-04T11:55:23;3.47;;;0.77;;
32399;SDS011;45045;45.440;9.178;2023-02-04T11:57:51;3.53;;;1.20;;
32399;SDS011;45045;45.440;9.178;2023-02-04T12:00:25;4.65;;;0.60;;
32399;SDS011;45045;45.440;9.178;2023-02-04T12:02:56;5.47;;;1.42;;
32399;SDS011;45045;45.440;9.178;2023-02-04T12:05:28;3.85;;;0.80;;
32399;SDS011;45045;45.440;9.178;2023-02-04T12:08:10;2.10;;;0.90;;
32399;SDS011;45045;45.440;9.178;2023-02-04T12:11:04;3.08;;;0.77;;
32399;SDS011;45045;45.440;9.178;2023-02-04T12:13:52;3.58;;;1.20;;
32399;SDS011;45045;45.440;9.178;2023-02-04T12:16:19;3.25;;;0.82;;
32399;SDS011;45045;45.440;9.178;2023-02-04T12:18:45;2.10;;;0.80;;
32399;SDS011;45045;45.440;9.178;2023-02-04T12:21:15;8.07;;;2.85;;
32399;SDS011;45045;45.440;9.178;2023-02-04T12:23:45;3.80;;;0.98;;
32399;SDS011;45045;45.440;9.178;2023-02-04T12:26:34;3.33;;;1.25;;
32399;SDS011;45045;45.440;9.178;2023-02-04T12:28:59;3.78;;;1.40;;
32399;SDS011;45045;45.440;9.178;2023-02-04T12:31:27;45.00;;;40.33;;
32399;SDS011;45045;45.440;9.178;2023-02-04T12:33:53;7.13;;;1.20;;
32399;SDS011;45045;45.440;9.178;2023-02-04T12:36:19;6.57;;;1.30;;
32399;SDS011;45045;45.440;9.178;2023-02-04T12:38:50;3.53;;;0.98;;
32399;SDS011;45045;45.440;9.178;2023-02-04T12:41:15;3.90;;;1.30;;
32399;SDS011;45045;45.440;9.178;2023-02-04T12:43:45;2.45;;;0.77;;
32399;SDS011;45045;45.440;9.178;2023-02-04T12:46:15;10.50;;;6.30;;
32399;SDS011;45045;45.440;9.178;2023-02-04T12:48:45;4.03;;;1.17;;
32399;SDS011;45045;45.440;9.178;2023-02-04T12:53:58;3.08;;;0.43;;
32399;SDS011;45045;45.440;9.178;2023-02-04T12:56:24;3.22;;;0.40;;
32399;SDS011;45045;45.440;9.178;2023-02-04T12:58:50;6.85;;;0.75;;
32399;SDS011;45045;45.440;9.178;2023-02-04T13:01:16;1.45;;;0.40;;
32399;SDS011;45045;45.440;9.178;2023-02-04T13:03:41;3.55;;;0.88;;
32399;SDS011;45045;45.440;9.178;2023-02-04T13:06:07;3.03;;;0.50;;
32399;SDS011;45045;45.440;9.178;2023-02-04T13:08:33;4.53;;;1.95;;
32399;SDS011;45045;45.440;9.178;2023-02-04T13:11:01;2.90;;;0.63;;
32399;SDS011;45045;45.440;9.178;2023-02-04T13:13:27;3.58;;;1.85;;
32399;SDS011;45045;45.440;9.178;2023-02-04T13:15:53;2.60;;;1.00;;
32399;SDS011;45045;45.440;9.178;2023-02-04T13:18:19;6.72;;;1.75;;
32399;SDS011;45045;45.440;9.178;2023-02-04T13:20:44;4.30;;;2.20;;
32399;SDS011;45045;45.440;9.178;2023-02-04T13:23:10;5.00;;;2.03;;
32399;SDS011;45045;45.440;9.178;2023-02-04T13:25:36;4.85;;;2.35;;
32399;SDS011;45045;45.440;9.178;2023-02-04T13:28:01;6.60;;;2.38;;
32399;SDS011;45045;45.440;9.178;2023-02-04T13:30:27;5.57;;;2.08;;
32399;SDS011;45045;45.440;9.178;2023-02-04T13:32:53;3.33;;;1.20;;
32399;SDS011;45045;45.440;9.178;2023-02-04T13:35:18;2.13;;;0.65;;
32399;SDS011;45045;45.440;9.178;2023-02-04T13:37:45;5.55;;;1.50;;
32399;SDS011;45045;45.440;9.178;2023-02-04T13:40:14;3.83;;;0.63;;
32399;SDS011;45045;45.440;9.178;2023-02-04T13:42:42;2.35;;;0.50;;
32399;SDS011;45045;45.440;9.178;2023-02-04T13:45:11;4.57;;;0.63;;
32399;SDS011;45045;45.440;9.178;2023-02-04T13:47:37;4.43;;;0.80;;
32399;SDS011;45045;45.440;9.178;2023-02-04T13:50:03;5.18;;;2.25;;
32399;SDS011;45045;45.440;9.178;2023-02-04T13:52:29;3.42;;;1.00;;
32399;SDS011;45045;45.440;9.178;2023-02-04T13:54:58;3.47;;;1.42;;
32399;SDS011;45045;45.440;9.178;2023-02-04T13:57:25;2.30;;;0.60;;
32399;SDS011;45045;45.440;9.178;2023-02-04T13:59:55;5.45;;;1.70;;
32399;SDS011;45045;45.440;9.178;2023-02-04T14:02:21;3.60;;;1.10;;
32399;SDS011;45045;45.440;9.178;2023-02-04T14:04:49;4.88;;;2.30;;
32399;SDS011;45045;45.440;9.178;2023-02-04T14:07:17;10.60;;;4.13;;
32399;SDS011;45045;45.440;9.178;2023-02-04T14:09:43;7.53;;;2.63;;
32399;SDS011;45045;45.440;9.178;2023-02-04T14:12:11;8.48;;;2.00;;
32399;SDS011;45045;45.440;9.178;2023-02-04T14:14:37;4.10;;;0.90;;
32399;SDS011;45045;45.440;9.178;2023-02-04T14:17:22;5.80;;;1.20;;
32399;SDS011;45045;45.440;9.178;2023-02-04T14:19:58;2.47;;;0.98;;
32399;SDS011;45045;45.440;9.178;2023-02-04T14:22:24;4.32;;;0.60;;
32399;SDS011;45045;45.440;9.178;2023-02-04T14:25:09;2.20;;;0.77;;
32399;SDS011;45045;45.440;9.178;2023-02-04T14:27:35;2.30;;;0.70;;
32399;SDS011;45045;45.440;9.178;2023-02-04T14:30:06;2.63;;;0.50;;
32399;SDS011;45045;45.440;9.178;2023-02-04T14:32:39;3.72;;;1.60;;
32399;SDS011;45045;45.440;9.178;2023-02-04T14:35:05;5.78;;;1.73;;
32399;SDS011;45045;45.440;9.178;2023-02-04T14:37:31;5.45;;;1.92;;
32399;SDS011;45045;45.440;9.178;2023-02-04T14:39:57;2.42;;;0.80;;
32399;SDS011;45045;45.440;9.178;2023-02-04T14:42:23;5.38;;;1.63;;